Saint Petersburg, Florida
Current Conditions -  °F | °C
As of 7:53 AM on Tuesday 21 Oct 2014 (Local Time) from KSPG Reporting Station
Clear Clear  
Wind Chill: 75°   Ceiling: Unl
Heat Index: 75°   Visibility: 10mi
Dew Point: 68°   Wind: 3mph
Humidity: 79%   Direction: 30°NNE
Pressure: 29.93"   Gusts: NA
Location:  27.77°N, 82.63°W
Report Text: KSPG 211153Z 03003KT 10SM CLR 24/20 A2993 RMK AO2 SLP134 T02390200 10250 20233 53006
Loading
Personal Weather Stations






























Interactive Weather Map
Tropical Storm Tracking
New forecast layout! Learn more

10-Day Weather Forecast

Advertisements
Track Severe Weather on mobile